Time;durP1;ratioP1;P1;durP2;ratioP2;P2;SDS_P1;SDS_P2;PMS_P1;PMS_P2;Temp;Humidity;BMP_temperature;BMP_pressure;BME280_temperature;BME280_humidity;BME280_pressure;Samples;Min_cycle;Max_cycle;Signal;HPM_P1;HPM_P2
2022/04/17 00:02:14;;;;;;;2.10;1.50;;;;;;;5.47;50.82;100377.09;5112968;28;40528;-75
2022/04/17 00:04:42;;;;;;;1.77;1.40;;;;;;;5.43;50.57;100367.56;5096021;28;43494;-76
2022/04/17 00:07:10;;;;;;;1.40;1.30;;;;;;;5.38;50.56;100373.75;5114255;28;42048;-75
2022/04/17 00:09:37;;;;;;;1.63;1.53;;;;;;;5.32;50.28;100368.59;5112932;28;38932;-77
2022/04/17 00:12:06;;;;;;;1.27;1.17;;;;;;;5.27;50.35;100367.81;5112967;28;41925;-76
2022/04/17 00:14:33;;;;;;;1.47;1.20;;;;;;;5.22;50.21;100361.75;5095617;28;43114;-77
2022/04/17 00:17:03;;;;;;;2.60;1.50;;;;;;;5.19;50.17;100361.84;5114175;28;42326;-75
2022/04/17 00:19:30;;;;;;;1.40;1.30;;;;;;;5.13;50.42;100361.94;5112509;28;38407;-78
2022/04/17 00:21:58;;;;;;;1.33;1.23;;;;;;;5.11;50.56;100362.84;5096061;28;40863;-75
2022/04/17 00:24:27;;;;;;;1.90;1.30;;;;;;;5.05;50.33;100359.44;5113104;28;41783;-75
2022/04/17 00:26:54;;;;;;;1.50;1.23;;;;;;;4.96;50.48;100353.44;5113973;28;42334;-77
2022/04/17 00:29:22;;;;;;;1.37;1.27;;;;;;;5.00;51.43;100349.88;5095262;28;40778;-75
2022/04/17 00:31:49;;;;;;;1.50;1.30;;;;;;;4.95;51.84;100335.94;5112948;28;40555;-75
2022/04/17 00:34:19;;;;;;;1.60;1.50;;;;;;;4.87;53.35;100320.34;5094324;28;43111;-77
2022/04/17 00:36:46;;;;;;;2.07;1.60;;;;;;;4.84;52.61;100311.63;5113300;27;42047;-77
2022/04/17 00:39:14;;;;;;;2.27;1.20;;;;;;;4.94;52.18;100339.50;5094079;28;38950;-75
2022/04/17 00:41:41;;;;;;;1.53;1.30;;;;;;;4.94;52.58;100339.50;5093511;28;42058;-75
2022/04/17 00:44:11;;;;;;;1.60;1.50;;;;;;;4.92;52.37;100331.66;5091872;28;41835;-77
2022/04/17 00:46:40;;;;;;;1.70;1.60;;;;;;;4.90;52.31;100329.94;5092154;28;41399;-76
2022/04/17 00:49:07;;;;;;;2.50;1.80;;;;;;;4.88;52.95;100331.72;5075010;28;39361;-76
2022/04/17 00:51:36;;;;;;;1.33;1.20;;;;;;;4.83;52.89;100320.41;5092016;28;41840;-75
2022/04/17 00:54:05;;;;;;;1.53;1.43;;;;;;;4.86;52.85;100317.72;5074595;28;42010;-77
2022/04/17 00:56:33;;;;;;;1.43;1.33;;;;;;;4.80;52.76;100307.34;5093133;28;42056;-77
2022/04/17 00:59:02;;;;;;;1.83;1.30;;;;;;;4.83;52.73;100312.53;5093085;28;39917;-77
2022/04/17 01:01:32;;;;;;;1.30;1.20;;;;;;;4.78;52.84;100298.63;5092058;28;42516;-77
2022/04/17 01:03:59;;;;;;;2.17;1.70;;;;;;;4.73;52.99;100297.81;5091391;28;41643;-77
2022/04/17 01:06:27;;;;;;;1.53;1.43;;;;;;;4.78;53.26;100301.25;5092035;28;41156;-76
2022/04/17 01:08:56;;;;;;;1.57;1.47;;;;;;;4.76;53.43;100300.41;5091497;28;39957;-77
2022/04/17 01:11:24;;;;;;;1.93;1.40;;;;;;;4.76;53.23;100308.28;5074733;28;41998;-76
2022/04/17 01:13:52;;;;;;;1.50;1.40;;;;;;;4.73;52.72;100318.81;5091159;28;42403;-77
2022/04/17 01:16:23;;;;;;;1.60;1.30;;;;;;;4.71;52.82;100310.97;5092547;28;43069;-75
2022/04/17 01:18:55;;;;;;;1.30;1.20;;;;;;;4.67;54.34;100297.03;5092476;28;41530;-77
2022/04/17 01:21:24;;;;;;;2.77;1.53;;;;;;;4.65;54.25;100306.69;5088733;28;41820;-77
2022/04/17 01:29:22;;;;;;;2.80;1.70;;;;;;;4.54;54.87;100298.13;5074337;28;39027;-75
2022/04/17 01:31:50;;;;;;;1.43;1.30;;;;;;;4.54;55.74;100286.75;5074428;28;40395;-74
2022/04/17 01:34:18;;;;;;;1.60;1.50;;;;;;;4.48;56.13;100277.22;5091271;28;42941;-74
2022/04/17 01:36:48;;;;;;;1.87;1.50;;;;;;;4.53;55.40;100285.88;5091132;28;41072;-75
2022/04/17 01:39:17;;;;;;;1.70;1.60;;;;;;;4.51;55.02;100287.66;5074180;28;38860;-76
2022/04/17 01:41:45;;;;;;;1.87;1.40;;;;;;;4.51;54.78;100292.03;5076505;28;41371;-79
2022/04/17 01:44:13;;;;;;;2.60;1.83;;;;;;;4.49;54.88;100288.56;5095439;28;43134;-76
2022/04/17 01:46:40;;;;;;;2.50;1.30;;;;;;;4.40;54.75;100276.47;5097468;28;41331;-78
2022/04/17 01:49:08;;;;;;;2.30;1.47;;;;;;;4.49;55.66;100283.31;5096210;28;40731;-77
2022/04/17 01:51:38;;;;;;;2.00;1.67;;;;;;;4.49;55.34;100280.69;5096821;28;42120;-76
2022/04/17 01:54:08;;;;;;;1.10;1.00;;;;;;;4.48;55.10;100274.59;5079972;28;42429;-75
2022/04/17 01:56:38;;;;;;;2.50;1.23;;;;;;;4.47;55.44;100269.34;5097244;28;43134;-76
2022/04/17 01:59:06;;;;;;;2.20;1.17;;;;;;;4.44;55.42;100259.81;5096655;28;40292;-75
2022/04/17 02:01:34;;;;;;;1.30;1.20;;;;;;;4.38;55.49;100244.16;5073956;28;40247;-76
2022/04/17 02:04:03;;;;;;;1.60;1.50;;;;;;;4.45;55.33;100250.19;5092047;28;43750;-76
2022/04/17 02:06:30;;;;;;;1.30;1.20;;;;;;;4.42;55.68;100251.09;5074021;28;42526;-75
2022/04/17 02:08:58;;;;;;;2.30;1.63;;;;;;;4.34;55.20;100250.31;5090695;28;39814;-75
2022/04/17 02:11:28;;;;;;;2.60;1.33;;;;;;;4.34;54.95;100261.69;5090871;28;40813;-78
2022/04/17 02:13:57;;;;;;;1.40;1.27;;;;;;;4.35;55.06;100267.78;5090724;28;42457;-75
2022/04/17 02:16:25;;;;;;;1.60;1.50;;;;;;;4.27;55.18;100262.66;5073808;28;40799;-77
2022/04/17 02:18:53;;;;;;;2.03;1.63;;;;;;;4.27;55.13;100264.41;5090357;28;40967;-76
2022/04/17 02:21:21;;;;;;;1.40;1.30;;;;;;;4.28;56.05;100264.41;5087770;28;41494;-76
2022/04/17 02:23:49;;;;;;;2.00;1.30;;;;;;;4.26;56.33;100260.94;5073693;28;43314;-76
2022/04/17 02:26:17;;;;;;;1.67;1.47;;;;;;;4.24;56.52;100262.69;5090619;28;40832;-75
2022/04/17 02:28:47;;;;;;;1.43;1.30;;;;;;;4.24;56.85;100259.22;5090400;28;40714;-76
2022/04/17 02:31:17;;;;;;;1.63;1.53;;;;;;;4.23;56.82;100260.09;5092888;27;41766;-76
2022/04/17 02:33:45;;;;;;;2.40;1.87;;;;;;;4.23;56.75;100265.34;5091169;28;41795;-76
2022/04/17 02:36:12;;;;;;;2.10;1.73;;;;;;;4.19;57.11;100247.94;5091639;28;42259;-74
2022/04/17 02:38:40;;;;;;;1.57;1.47;;;;;;;4.17;58.20;100232.22;5090331;28;39993;-74
2022/04/17 02:41:08;;;;;;;1.60;1.50;;;;;;;4.16;58.61;100227.88;5073456;28;41658;-76
2022/04/17 02:43:36;;;;;;;2.70;1.40;;;;;;;4.24;58.41;100238.22;5073088;28;42581;-77
2022/04/17 02:46:05;;;;;;;1.93;1.63;;;;;;;4.26;57.88;100233.84;5090418;28;41423;-76
2022/04/17 02:48:32;;;;;;;2.43;1.90;;;;;;;4.13;57.86;100230.53;5107302;28;40273;-75
2022/04/17 02:51:00;;;;;;;1.97;1.83;;;;;;;4.14;57.93;100227.03;5090423;28;41073;-75
2022/04/17 02:53:28;;;;;;;1.97;1.73;;;;;;;4.20;58.52;100233.94;5107036;28;42718;-75
2022/04/17 02:55:55;;;;;;;3.10;2.00;;;;;;;4.04;58.96;100206.22;5089761;28;42389;-75
2022/04/17 02:58:23;;;;;;;3.67;2.27;;;;;;;4.16;58.81;100229.63;5093124;28;40644;-75
2022/04/17 03:06:23;;;;;;;2.47;2.07;;;;;;;4.00;58.94;100204.50;5076793;28;41200;-76
2022/04/17 03:08:51;;;;;;;3.23;2.00;;;;;;;4.01;58.16;100216.72;5076486;28;40287;-76
2022/04/17 03:11:19;;;;;;;2.23;2.03;;;;;;;3.93;58.38;100212.47;5093417;28;40995;-76
2022/04/17 03:13:48;;;;;;;3.57;2.20;;;;;;;3.78;58.52;100198.72;5093215;28;43319;-75
2022/04/17 03:16:15;;;;;;;1.50;1.40;;;;;;;3.91;58.55;100221.25;5076442;28;42378;-75
2022/04/17 03:18:44;;;;;;;1.60;1.50;;;;;;;3.81;58.65;100212.66;5075988;28;39186;-75
2022/04/17 03:21:13;;;;;;;1.63;1.53;;;;;;;3.81;58.50;100217.88;5076178;28;41578;-77
2022/04/17 03:23:42;;;;;;;2.53;1.83;;;;;;;3.76;58.30;100217.06;5076325;28;43459;-76
2022/04/17 03:26:10;;;;;;;2.07;1.73;;;;;;;3.65;58.28;100203.25;5113407;28;42365;-77
2022/04/17 03:28:37;;;;;;;3.67;2.20;;;;;;;3.66;57.88;100223.31;5096651;28;39327;-76
2022/04/17 03:31:05;;;;;;;1.50;1.40;;;;;;;3.69;57.71;100236.38;5113705;28;42645;-77
2022/04/17 03:33:33;;;;;;;2.40;1.80;;;;;;;3.66;57.78;100236.41;5114768;28;43770;-76
2022/04/17 03:36:02;;;;;;;2.57;1.63;;;;;;;3.61;57.92;100227.75;5113638;28;42364;-77
2022/04/17 03:38:29;;;;;;;2.10;1.70;;;;;;;3.58;57.62;100233.91;5113399;28;40569;-77
2022/04/17 03:40:59;;;;;;;1.97;1.70;;;;;;;3.42;57.95;100202.66;5114834;28;41512;-77
2022/04/17 03:43:27;;;;;;;2.37;1.40;;;;;;;3.46;58.00;100222.72;5113117;28;41192;-76
2022/04/17 03:45:55;;;;;;;1.73;1.63;;;;;;;3.49;58.60;100222.66;5096104;28;42160;-77
2022/04/17 03:48:23;;;;;;;1.97;1.87;;;;;;;3.48;58.24;100220.91;5114407;28;40784;-76
2022/04/17 03:50:52;;;;;;;1.87;1.60;;;;;;;3.41;58.26;100209.66;5096482;28;41854;-76
2022/04/17 03:53:23;;;;;;;2.67;1.60;;;;;;;3.30;59.53;100185.34;5112998;28;43852;-75
2022/04/17 03:55:51;;;;;;;1.97;1.63;;;;;;;3.10;59.16;100155.91;5110158;28;42072;-76
2022/04/17 03:58:19;;;;;;;3.20;1.60;;;;;;;3.38;59.24;100203.59;5095673;28;40227;-76
2022/04/17 04:00:47;;;;;;;4.03;2.03;;;;;;;3.35;59.86;100190.50;5113512;28;41056;-77
2022/04/17 04:03:15;;;;;;;1.80;1.70;;;;;;;3.30;60.01;100192.34;5112835;28;42930;-75
2022/04/17 04:05:43;;;;;;;2.27;1.83;;;;;;;3.31;59.64;100204.56;5114431;28;42514;-75
2022/04/17 04:08:10;;;;;;;2.17;1.97;;;;;;;3.27;60.08;100202.84;5095988;28;38978;-77
2022/04/17 04:10:39;;;;;;;2.00;1.80;;;;;;;3.23;60.44;100205.50;5113019;28;41714;-76
2022/04/17 04:13:07;;;;;;;3.17;1.97;;;;;;;3.20;60.21;100200.31;5112397;28;41677;-75
2022/04/17 04:15:35;;;;;;;1.97;1.77;;;;;;;3.17;60.14;100195.09;5113172;28;43156;-76
2022/04/17 04:18:03;;;;;;;2.13;1.93;;;;;;;3.14;60.07;100195.13;5112529;28;38905;-77
2022/04/17 04:20:30;;;;;;;2.50;1.87;;;;;;;3.12;59.61;100207.34;5112847;28;41543;-76
2022/04/17 04:22:58;;;;;;;2.07;1.77;;;;;;;3.09;59.16;100201.31;5113707;28;42676;-76
2022/04/17 04:25:26;;;;;;;1.80;1.70;;;;;;;3.06;59.71;100204.81;5095705;28;43587;-76
2022/04/17 04:30:40;;;;;;;2.20;1.80;;;;;;;3.03;59.25;100211.84;5133293;27;40847;-75
2022/04/17 04:33:08;;;;;;;1.43;1.30;;;;;;;3.02;59.24;100202.25;5133060;27;43796;-76
2022/04/17 04:35:36;;;;;;;1.77;1.53;;;;;;;3.01;59.42;100208.34;5134411;27;42170;-76
2022/04/17 04:38:05;;;;;;;2.13;1.60;;;;;;;3.02;59.39;100202.25;5115730;27;40313;-75
2022/04/17 04:40:33;;;;;;;2.80;1.90;;;;;;;3.02;59.59;100210.97;5133334;27;41764;-76
2022/04/17 04:43:03;;;;;;;1.90;1.80;;;;;;;3.02;60.04;100205.72;5115676;27;44107;-75
2022/04/17 04:49:29;;;;;;;2.80;1.70;;;;;;;3.03;60.01;100207.47;5133004;27;38972;-75
2022/04/17 04:51:04;;;;;;;1.70;1.60;;;;;;;3.03;59.50;100207.47;5115751;27;41913;-74
2022/04/17 04:53:32;;;;;;;2.10;1.90;;;;;;;3.13;59.54;100218.69;5115457;27;41646;-76
2022/04/17 04:56:00;;;;;;;2.30;1.40;;;;;;;3.15;59.05;100217.81;5133037;27;42182;-76
2022/04/17 04:58:29;;;;;;;2.80;1.30;;;;;;;3.19;59.88;100209.03;5132898;27;40042;-75
2022/04/17 05:00:57;;;;;;;2.13;1.93;;;;;;;3.22;60.60;100209.00;5134114;27;41819;-74
2022/04/17 05:03:25;;;;;;;3.70;1.93;;;;;;;3.28;61.52;100194.97;5133874;27;43763;-76
2022/04/17 05:05:52;;;;;;;2.13;1.70;;;;;;;3.28;60.72;100191.50;5115390;27;44543;-76
2022/04/17 05:08:20;;;;;;;1.93;1.60;;;;;;;3.51;60.16;100205.16;5132415;27;39871;-76
2022/04/17 05:10:48;;;;;;;1.60;1.50;;;;;;;3.63;59.99;100215.50;5115668;27;41547;-76
2022/04/17 05:13:17;;;;;;;2.17;2.00;;;;;;;3.64;59.31;100201.50;5114801;27;42440;-75
2022/04/17 05:15:46;;;;;;;1.87;1.60;;;;;;;3.82;59.14;100208.28;5132515;27;43091;-77
2022/04/17 05:18:14;;;;;;;1.47;1.37;;;;;;;3.89;59.31;100205.53;5132066;27;38673;-76
2022/04/17 05:20:41;;;;;;;2.00;1.60;;;;;;;4.01;59.11;100212.34;5131570;27;41116;-76
2022/04/17 05:25:54;;;;;;;2.60;2.03;;;;;;;4.28;59.45;100200.59;5128965;27;42360;-75
2022/04/17 05:28:22;;;;;;;2.03;1.83;;;;;;;4.30;58.65;100178.72;5114992;27;40713;-75
2022/04/17 05:30:52;;;;;;;2.33;2.13;;;;;;;4.73;57.86;100219.09;5094520;28;42194;-76
2022/04/17 05:33:21;;;;;;;1.83;1.50;;;;;;;4.90;57.66;100217.06;5111260;28;41659;-75
2022/04/17 05:35:50;;;;;;;2.77;1.80;;;;;;;4.99;57.02;100211.63;5111631;28;43240;-75
2022/04/17 05:38:17;;;;;;;2.03;1.77;;;;;;;5.27;56.93;100219.88;5111323;28;40992;-76
2022/04/17 05:40:48;;;;;;;1.67;1.57;;;;;;;5.44;56.74;100219.53;5094450;28;41004;-76
2022/04/17 05:43:16;;;;;;;2.67;2.23;;;;;;;5.45;56.65;100206.34;5094248;28;41161;-75
2022/04/17 05:45:45;;;;;;;2.50;1.90;;;;;;;5.70;56.42;100217.22;5111652;28;41484;-76
2022/04/17 05:48:14;;;;;;;3.50;2.00;;;;;;;5.80;56.33;100218.78;5094497;28;38909;-74
2022/04/17 05:50:42;;;;;;;3.03;2.00;;;;;;;5.83;56.43;100205.56;5111281;28;40689;-76
2022/04/17 05:53:10;;;;;;;2.50;1.93;;;;;;;5.87;56.59;100209.84;5112364;28;42655;-76
2022/04/17 05:55:39;;;;;;;2.43;2.00;;;;;;;6.04;56.47;100223.53;5094367;28;41409;-76
2022/04/17 05:58:06;;;;;;;1.93;1.77;;;;;;;6.08;56.06;100222.56;5093952;28;40997;-76
2022/04/17 06:00:36;;;;;;;2.20;2.10;;;;;;;6.19;55.94;100221.44;5094442;28;40629;-76
2022/04/17 06:03:05;;;;;;;2.40;1.80;;;;;;;6.37;55.84;100221.03;5110938;28;42564;-76
2022/04/17 06:05:34;;;;;;;3.70;2.30;;;;;;;6.78;55.13;100222.66;5111368;28;41554;-76
2022/04/17 06:08:02;;;;;;;2.00;1.80;;;;;;;7.22;53.90;100232.03;5111089;28;39978;-76
2022/04/17 06:10:31;;;;;;;2.33;1.93;;;;;;;7.46;53.28;100233.13;5111430;28;42775;-76
2022/04/17 06:12:58;;;;;;;2.37;2.00;;;;;;;7.61;53.33;100237.09;5110589;28;41840;-76
2022/04/17 06:15:26;;;;;;;2.37;1.87;;;;;;;7.63;53.20;100230.88;5093859;28;41571;-76
2022/04/17 06:17:58;;;;;;;3.27;2.33;;;;;;;7.29;53.35;100178.28;5094202;28;39712;-76
2022/04/17 06:20:25;;;;;;;2.10;1.70;;;;;;;7.66;53.15;100228.16;5095783;28;41802;-75
2022/04/17 06:22:54;;;;;;;3.27;2.10;;;;;;;7.89;52.59;100238.91;5110776;28;41781;-77
2022/04/17 06:25:22;;;;;;;2.93;1.90;;;;;;;8.44;51.90;100242.50;5112034;28;43222;-76
2022/04/17 06:27:50;;;;;;;2.40;2.20;;;;;;;9.05;50.76;100237.00;5110697;28;40642;-76
2022/04/17 06:30:20;;;;;;;3.10;1.93;;;;;;;9.35;50.33;100238.56;5111030;28;41777;-77
2022/04/17 06:32:48;;;;;;;3.00;2.27;;;;;;;9.37;49.85;100236.75;5130217;27;42735;-75
2022/04/17 06:35:17;;;;;;;3.03;2.23;;;;;;;9.31;50.58;100234.31;5114592;28;42263;-75
2022/04/17 06:37:50;;;;;;;2.37;2.10;;;;;;;9.29;50.23;100241.41;5114380;28;39933;-75
2022/04/17 06:40:21;;;;;;;2.63;2.00;;;;;;;9.27;49.82;100245.94;5111220;28;41448;-75
2022/04/17 06:42:50;;;;;;;2.17;1.93;;;;;;;9.22;50.46;100230.22;5111763;28;43078;-74
2022/04/17 06:45:19;;;;;;;3.10;2.27;;;;;;;9.18;50.02;100227.72;5097280;28;42015;-76
2022/04/17 06:47:47;;;;;;;3.03;2.10;;;;;;;9.13;49.60;100221.75;5097177;28;38829;-76
2022/04/17 06:50:16;;;;;;;3.80;2.23;;;;;;;9.43;49.43;100244.44;5114306;28;41029;-77
2022/04/17 06:52:44;;;;;;;2.43;1.90;;;;;;;9.75;48.67;100247.72;5114085;28;42872;-75
2022/04/17 06:55:12;;;;;;;2.80;1.90;;;;;;;9.90;48.16;100231.25;5131485;27;42387;-75
2022/04/17 06:57:46;;;;;;;3.10;1.77;;;;;;;10.09;48.46;100256.13;5131136;27;40164;-75
2022/04/17 07:00:15;;;;;;;2.90;1.97;;;;;;;10.19;49.09;100252.22;5128349;27;42032;-76
2022/04/17 07:02:43;;;;;;;2.20;2.00;;;;;;;10.24;47.77;100257.34;5115366;28;43039;-76
2022/04/17 07:05:12;;;;;;;2.60;1.60;;;;;;;10.41;47.05;100255.75;5113630;28;41061;-75
2022/04/17 07:07:40;;;;;;;2.40;1.80;;;;;;;10.64;46.86;100238.06;5114895;28;40785;-77
2022/04/17 07:10:09;;;;;;;2.10;1.90;;;;;;;11.28;46.23;100243.31;5113981;28;42104;-76
2022/04/17 07:12:37;;;;;;;1.77;1.63;;;;;;;12.12;44.75;100253.69;5114829;28;43770;-75
2022/04/17 07:15:09;;;;;;;2.90;1.97;;;;;;;12.98;44.01;100248.66;5113936;28;42378;-75
2022/04/17 07:17:39;;;;;;;1.83;1.70;;;;;;;13.47;41.83;100265.66;5113698;28;41718;-76
2022/04/17 07:20:09;;;;;;;3.17;1.80;;;;;;;13.73;41.35;100263.41;5113286;28;42063;-75
2022/04/17 07:22:38;;;;;;;3.07;2.27;;;;;;;13.77;40.57;100263.16;5113531;28;42001;-75
2022/04/17 07:25:08;;;;;;;2.83;1.90;;;;;;;13.90;39.71;100256.25;5113575;28;43030;-76
2022/04/17 07:27:36;;;;;;;1.83;1.73;;;;;;;14.35;39.54;100254.66;5113211;28;40136;-75
2022/04/17 07:30:04;;;;;;;2.33;1.83;;;;;;;15.45;37.42;100267.88;5112565;28;41114;-76
2022/04/17 07:32:34;;;;;;;2.10;1.80;;;;;;;16.84;35.35;100276.03;5114793;28;43179;-77
2022/04/17 07:35:02;;;;;;;2.00;1.80;;;;;;;17.80;33.62;100277.59;5113513;28;43764;-74
2022/04/17 07:37:31;;;;;;;2.30;1.70;;;;;;;18.01;34.52;100270.72;5114523;28;40862;-76
2022/04/17 07:39:59;;;;;;;2.60;1.97;;;;;;;18.19;33.16;100274.75;5113367;28;42866;-76
2022/04/17 07:42:28;;;;;;;1.60;1.50;;;;;;;18.47;32.92;100283.50;5112577;27;41807;-75
2022/04/17 07:44:55;;;;;;;2.03;1.70;;;;;;;18.79;31.64;100290.09;5096461;28;41263;-77
2022/04/17 07:47:24;;;;;;;2.70;1.40;;;;;;;18.81;31.06;100298.88;5096282;28;39979;-78
2022/04/17 07:49:54;;;;;;;1.73;1.57;;;;;;;19.09;30.36;100302.22;5114720;28;41971;-78
2022/04/17 07:52:21;;;;;;;1.53;1.23;;;;;;;19.32;29.73;100299.50;5113455;28;42893;-79
2022/04/17 07:54:50;;;;;;;2.03;1.30;;;;;;;19.48;29.32;100301.91;5113209;28;43270;-75
2022/04/17 07:57:17;;;;;;;1.33;1.23;;;;;;;19.28;28.67;100259.59;5096552;28;41007;-75
2022/04/17 07:59:46;;;;;;;1.50;1.40;;;;;;;20.23;28.86;100299.63;5096090;28;42008;-78
2022/04/17 08:02:22;;;;;;;1.97;1.70;;;;;;;21.69;28.34;100301.00;5113431;28;41843;-78
2022/04/17 08:04:51;;;;;;;1.60;1.43;;;;;;;22.93;25.44;100320.66;5113364;28;41726;-78
2022/04/17 08:07:20;;;;;;;2.30;1.63;;;;;;;23.04;24.83;100317.81;5113427;28;39672;-78
2022/04/17 08:09:48;;;;;;;1.57;1.43;;;;;;;22.93;25.80;100299.03;5096250;28;41044;-75
2022/04/17 08:12:16;;;;;;;2.70;1.33;;;;;;;23.76;24.22;100309.31;5113109;28;42668;-76
2022/04/17 08:14:43;;;;;;;3.57;1.30;;;;;;;24.01;23.96;100313.25;5095479;28;42284;-75
2022/04/17 08:17:11;;;;;;;1.50;1.27;;;;;;;23.90;23.09;100311.56;5130865;27;40903;-77
2022/04/17 08:19:39;;;;;;;1.63;1.27;;;;;;;24.42;22.90;100317.44;5132722;27;42490;-78
2022/04/17 08:22:06;;;;;;;2.20;1.70;;;;;;;25.38;22.57;100319.59;5134852;27;42901;-77
2022/04/17 08:24:36;;;;;;;1.83;1.60;;;;;;;26.46;21.44;100316.53;5134383;27;43306;-77
2022/04/17 08:27:04;;;;;;;1.53;1.30;;;;;;;27.45;20.65;100315.81;5133592;27;40004;-78
2022/04/17 08:29:32;;;;;;;1.93;1.37;;;;;;;28.40;18.78;100320.56;5133446;27;41724;-75
2022/04/17 08:31:59;;;;;;;1.80;1.70;;;;;;;29.12;17.82;100323.19;5134835;27;43803;-76
2022/04/17 08:34:27;;;;;;;1.80;1.70;;;;;;;29.55;17.51;100335.38;5116435;27;42421;-75
2022/04/17 08:36:55;;;;;;;1.70;1.60;;;;;;;29.62;16.81;100328.16;5133727;27;39929;-78
2022/04/17 08:39:22;;;;;;;2.97;1.80;;;;;;;29.61;17.42;100319.09;5116244;27;41143;-80
2022/04/17 08:41:54;;;;;;;1.80;1.70;;;;;;;30.28;16.65;100311.00;5133442;27;42858;-75
2022/04/17 08:44:23;;;;;;;1.87;1.77;;;;;;;31.31;16.66;100312.75;5115652;27;42362;-77
2022/04/17 08:46:51;;;;;;;2.53;1.80;;;;;;;31.45;15.82;100314.59;5133380;27;41895;-77
2022/04/17 08:49:21;;;;;;;1.95;1.35;;;;;;;31.71;15.01;100309.41;5134282;27;42443;-79
2022/04/17 08:51:49;;;;;;;1.67;1.53;;;;;;;32.01;15.06;100314.72;5133396;27;42910;-78
2022/04/17 08:54:18;;;;;;;1.30;1.20;;;;;;;31.72;15.49;100300.13;5133128;27;43247;-77
2022/04/17 08:56:45;;;;;;;1.93;1.60;;;;;;;31.42;15.18;100315.81;5116193;27;39807;-77
2022/04/17 08:59:15;;;;;;;2.23;1.60;;;;;;;31.23;15.14;100305.53;5115588;27;41010;-77
2022/04/17 09:01:42;;;;;;;1.87;1.40;;;;;;;30.96;15.68;100255.09;5134286;27;43859;-78
2022/04/17 09:04:10;;;;;;;1.63;1.53;;;;;;;31.56;14.90;100311.31;5132855;27;43189;-81
2022/04/17 09:06:38;;;;;;;1.43;1.33;;;;;;;32.08;14.25;100293.66;5134559;27;40089;-79
2022/04/17 09:09:07;;;;;;;2.47;1.30;;;;;;;32.19;14.34;100306.00;5115316;27;41913;-77
2022/04/17 09:11:36;;;;;;;1.87;1.60;;;;;;;31.86;14.94;100290.13;5115657;27;41975;-79
2022/04/17 09:14:05;;;;;;;1.80;1.70;;;;;;;31.61;14.01;100284.22;5132731;27;43102;-78
2022/04/17 09:16:38;;;;;;;2.23;2.03;;;;;;;31.11;15.02;100287.06;5116059;27;40629;-79
2022/04/17 09:19:15;;;;;;;1.40;1.30;;;;;;;29.83;15.96;100275.53;5131854;27;42228;-78
2022/04/17 09:21:43;;;;;;;1.53;1.43;;;;;;;28.92;17.12;100258.16;5131259;27;43864;-78
2022/04/17 09:24:16;;;;;;;1.50;1.40;;;;;;;28.85;17.41;100268.09;5115663;27;41119;-76
2022/04/17 09:26:51;;;;;;;1.30;1.20;;;;;;;28.24;17.43;100245.16;5115887;27;38988;-76
2022/04/17 09:29:21;;;;;;;1.90;1.40;;;;;;;27.74;18.43;100230.97;5133518;27;41898;-81
2022/04/17 09:31:57;;;;;;;2.43;1.57;;;;;;;27.68;17.91;100256.16;5132947;27;43486;-79
2022/04/17 09:34:25;;;;;;;1.80;1.70;;;;;;;27.91;18.08;100243.53;5132302;27;41160;-80
2022/04/17 09:36:57;;;;;;;3.33;1.73;;;;;;;28.53;17.33;100230.06;5130132;27;41027;-77
2022/04/17 09:39:30;;;;;;;2.83;1.57;;;;;;;28.56;17.21;100246.88;5111357;28;42561;-78
2022/04/17 09:41:59;;;;;;;2.20;1.30;;;;;;;27.95;17.57;100239.41;5095425;28;42539;-80
2022/04/17 09:44:38;;;;;;;3.13;1.80;;;;;;;27.21;18.87;100215.13;5111612;28;42253;-76
2022/04/17 09:47:12;;;;;;;2.60;1.47;;;;;;;26.76;18.57;100211.84;5112145;28;39124;-82
2022/04/17 09:49:57;;;;;;;1.70;1.27;;;;;;;27.01;18.63;100206.47;5112173;28;41509;-78
2022/04/17 09:52:27;;;;;;;2.33;1.30;;;;;;;27.18;18.77;100210.91;5109954;28;43685;-77
2022/04/17 09:54:56;;;;;;;2.30;1.27;;;;;;;27.40;18.82;100210.22;5109177;28;42362;-75
2022/04/17 09:57:29;;;;;;;1.87;1.43;;;;;;;27.40;19.02;100188.47;5111655;28;38807;-83
2022/04/17 09:59:58;;;;;;;2.13;1.50;;;;;;;27.30;18.19;100203.25;5108758;28;41653;-78
2022/04/17 10:02:28;;;;;;;1.43;1.27;;;;;;;26.28;18.26;100206.25;5112962;28;42884;-81
2022/04/17 10:04:55;;;;;;;1.73;1.00;;;;;;;25.47;19.17;100156.91;5112943;28;43303;-76
2022/04/17 10:07:23;;;;;;;2.17;1.37;;;;;;;25.45;19.80;100180.63;5111380;28;40288;-78
2022/04/17 10:09:51;;;;;;;1.27;1.17;;;;;;;25.30;19.97;100178.50;5111949;28;41445;-79
2022/04/17 10:12:21;;;;;;;2.63;1.30;;;;;;;25.44;21.00;100165.38;5112804;28;42709;-80
2022/04/17 10:14:50;;;;;;;1.23;1.13;;;;;;;26.72;19.76;100163.41;5111659;28;42349;-75
2022/04/17 10:17:20;;;;;;;1.53;1.43;;;;;;;27.58;19.39;100163.78;5112809;27;38995;-76
2022/04/17 10:19:51;;;;;;;1.70;1.20;;;;;;;27.89;17.91;100163.88;5132502;27;42187;-76
2022/04/17 10:22:20;;;;;;;1.83;1.57;;;;;;;28.12;18.42;100147.63;5114868;27;43865;-78
2022/04/17 10:24:55;;;;;;;1.57;1.37;;;;;;;29.21;17.13;100155.63;5131873;27;41484;-76
2022/04/17 10:27:25;;;;;;;2.03;1.43;;;;;;;29.35;16.29;100171.19;5132120;27;39899;-81
2022/04/17 10:30:03;;;;;;;2.07;1.80;;;;;;;29.64;16.41;100171.28;5115630;27;41739;-77
2022/04/17 10:33:12;;;;;;;2.10;1.70;;;;;;;30.35;15.41;100175.22;5128812;27;42619;-81
2022/04/17 10:36:04;;;;;;;1.33;1.20;;;;;;;31.86;14.64;100168.72;5114929;27;42336;-77
2022/04/17 10:38:44;;;;;;;1.60;1.50;;;;;;;32.90;14.40;100163.88;5139325;27;41218;-77
2022/04/17 10:41:13;;;;;;;1.73;1.40;;;;;;;32.64;14.65;100151.78;5135026;27;41757;-78
2022/04/17 10:43:57;;;;;;;1.37;1.27;;;;;;;32.32;14.02;100147.88;5136197;27;42786;-76
2022/04/17 10:46:26;;;;;;;1.67;1.23;;;;;;;32.07;14.58;100132.97;5132507;27;43246;-79
2022/04/17 10:48:57;;;;;;;1.33;1.10;;;;;;;32.10;14.34;100143.56;5132010;27;38598;-75
2022/04/17 10:51:27;;;;;;;1.30;1.20;;;;;;;33.16;13.97;100140.06;5140690;27;40442;-77
2022/04/17 10:54:05;;;;;;;1.30;1.20;;;;;;;33.92;13.59;100147.00;5125385;27;42286;-76
2022/04/17 10:56:33;;;;;;;1.60;1.50;;;;;;;33.91;12.65;100146.13;5141766;27;42428;-75
2022/04/17 10:59:05;;;;;;;1.50;1.40;;;;;;;33.84;13.18;100140.69;5124750;27;38885;-76
2022/04/17 11:01:54;;;;;;;1.70;1.60;;;;;;;33.92;12.18;100145.09;5142467;27;42277;-75
2022/04/17 11:04:24;;;;;;;1.97;1.30;;;;;;;33.47;13.31;100130.38;5143277;27;43062;-78
2022/04/17 11:07:21;;;;;;;3.30;1.30;;;;;;;33.66;13.39;100126.72;5131892;27;44435;-77
2022/04/17 11:09:50;;;;;;;1.60;1.50;;;;;;;33.93;12.89;100119.28;5128287;27;40757;-77
2022/04/17 11:12:27;;;;;;;1.97;1.50;;;;;;;34.04;13.47;100120.50;5114469;27;42454;-78
2022/04/17 11:15:12;;;;;;;2.13;1.30;;;;;;;33.91;13.33;100112.31;5115339;27;41751;-82
2022/04/17 11:17:40;;;;;;;1.83;1.53;;;;;;;34.28;13.67;100103.31;5132425;27;43753;-78
2022/04/17 11:20:09;;;;;;;1.43;1.20;;;;;;;34.33;13.41;100102.66;5117483;27;39743;-77
2022/04/17 11:22:39;;;;;;;2.10;1.77;;;;;;;34.38;13.91;100089.91;5117530;27;40822;-77
2022/04/17 11:25:09;;;;;;;3.20;1.40;;;;;;;34.31;14.26;100072.59;5117630;27;41966;-76
2022/04/17 11:27:41;;;;;;;1.60;1.40;;;;;;;34.34;13.43;100088.69;5135532;27;42083;-79
2022/04/17 11:30:30;;;;;;;2.57;1.63;;;;;;;33.59;13.19;100086.59;5118235;27;39155;-77
2022/04/17 11:32:58;;;;;;;1.40;1.30;;;;;;;32.74;14.63;100071.84;5115147;28;41779;-80
2022/04/17 11:35:28;;;;;;;2.00;1.80;;;;;;;32.29;13.65;100082.47;5114247;28;43148;-82
2022/04/17 11:38:01;;;;;;;1.30;1.20;;;;;;;33.36;13.05;100078.81;5096907;28;41336;-81
2022/04/17 11:40:31;;;;;;;1.17;1.10;;;;;;;34.18;12.80;100073.50;5113994;28;40127;-79
2022/04/17 11:43:07;;;;;;;2.37;1.57;;;;;;;34.71;12.01;100073.19;5096608;28;42505;-81
2022/04/17 11:45:35;;;;;;;1.70;1.40;;;;;;;35.23;12.28;100066.44;5110956;28;43774;-79
2022/04/17 11:48:09;;;;;;;1.90;1.30;;;;;;;36.12;12.12;100053.13;5113664;28;41356;-79
2022/04/17 11:50:37;;;;;;;1.53;1.30;;;;;;;36.25;11.27;100078.66;5097137;28;39008;-79
2022/04/17 11:53:10;;;;;;;1.33;1.23;;;;;;;36.82;11.80;100056.19;5113312;28;42098;-77
2022/04/17 11:55:39;;;;;;;1.80;1.70;;;;;;;37.49;11.72;100053.94;5110529;28;43359;-80
2022/04/17 11:58:10;;;;;;;2.45;1.50;;;;;;;37.80;9.93;100066.56;5114589;28;42009;-80
2022/04/17 12:00:38;;;;;;;1.70;1.27;;;;;;;37.72;9.94;100060.28;5111886;28;40028;-82